Time,TemperatureF,DewpointF,PressureIn,WindDirection,WindDirectionDegrees,WindSpeedMPH,WindSpeedGustMPH,Humidity,HourlyPrecipIn,Conditions,Clouds,dailyrainin,SoftwareType,DateUTC
2013-11-22 10:05:00,43.9,41.2,30.14,NW,305,0.0,0.0,90,0.00,,,0.07,Wunderground v.1.15,2013-11-22 15:05:00,
2013-11-22 10:15:00,44.0,41.3,30.13,NW,305,0.0,0.0,90,0.04,,,0.08,Wunderground v.1.15,2013-11-22 15:15:00,
2013-11-22 10:25:00,44.1,41.4,30.13,NW,305,0.0,0.0,90,0.09,,,0.09,Wunderground v.1.15,2013-11-22 15:25:00,
2013-11-22 10:30:00,44.2,41.5,30.13,NW,305,0.0,0.0,90,0.05,,,0.09,Wunderground v.1.15,2013-11-22 15:30:00,
2013-11-22 10:35:00,44.2,41.5,30.13,NW,305,0.0,0.0,90,0.04,,,0.09,Wunderground v.1.15,2013-11-22 15:35:00,
2013-11-22 10:40:00,44.2,41.5,30.12,NW,305,0.0,0.0,90,0.00,,,0.10,Wunderground v.1.15,2013-11-22 15:40:00,
2013-11-22 10:45:00,44.2,41.5,30.11,NW,305,0.0,0.0,90,0.10,,,0.11,Wunderground v.1.15,2013-11-22 15:45:00,
2013-11-22 10:50:00,44.3,41.6,30.11,NW,305,0.0,0.0,90,0.10,,,0.11,Wunderground v.1.15,2013-11-22 15:50:00,
2013-11-22 11:00:00,44.4,41.7,30.10,NW,305,0.0,0.0,90,0.06,,,0.12,Wunderground v.1.15,2013-11-22 16:00:00,
2013-11-22 11:05:00,44.5,41.7,30.10,NW,305,0.0,0.0,90,0.04,,,0.12,Wunderground v.1.15,2013-11-22 16:05:00,
2013-11-22 11:15:00,44.6,41.8,30.09,NW,305,0.0,0.0,90,0.04,,,0.13,Wunderground v.1.15,2013-11-22 16:15:00,
2013-11-22 11:25:00,44.6,41.8,30.07,NW,305,0.0,0.0,90,0.04,,,0.14,Wunderground v.1.15,2013-11-22 16:25:00,
2013-11-22 11:30:00,44.7,41.9,30.07,NW,305,0.0,0.0,90,0.04,,,0.14,Wunderground v.1.15,2013-11-22 16:30:00,
2013-11-22 11:35:00,44.7,41.9,30.07,NW,305,0.0,0.0,90,0.04,,,0.14,Wunderground v.1.15,2013-11-22 16:35:00,
2013-11-22 11:45:00,44.9,42.1,30.06,NW,305,0.0,0.0,90,0.00,,,0.15,Wunderground v.1.15,2013-11-22 16:45:00,
2013-11-22 11:55:00,45.0,42.2,30.06,NW,305,0.0,0.0,90,0.00,,,0.15,Wunderground v.1.15,2013-11-22 16:55:00,
2013-11-22 12:05:00,45.1,42.3,30.05,NW,305,0.0,0.0,90,0.00,,,0.15,Wunderground v.1.15,2013-11-22 17:05:00,
2013-11-22 12:15:00,45.2,42.4,30.05,NW,305,0.0,0.0,90,0.00,,,0.16,Wunderground v.1.15,2013-11-22 17:15:00,
2013-11-22 12:25:00,45.2,42.4,30.04,NW,305,0.0,0.0,90,0.00,,,0.16,Wunderground v.1.15,2013-11-22 17:25:00,
2013-11-22 12:30:00,45.3,42.5,30.03,NW,305,0.0,0.0,90,0.00,,,0.16,Wunderground v.1.15,2013-11-22 17:30:00,
2013-11-22 12:40:00,45.4,42.6,30.02,NW,305,0.0,0.0,90,0.00,,,0.16,Wunderground v.1.15,2013-11-22 17:40:00,
2013-11-22 12:45:00,45.5,42.7,30.02,NW,305,0.0,0.0,90,0.00,,,0.17,Wunderground v.1.15,2013-11-22 17:45:00,
2013-11-22 12:55:00,45.6,42.8,30.01,NW,305,0.0,0.0,90,0.00,,,0.17,Wunderground v.1.15,2013-11-22 17:55:00,
2013-11-22 13:05:00,45.7,42.9,30.01,NW,305,0.0,0.0,90,0.00,,,0.17,Wunderground v.1.15,2013-11-22 18:05:00,
2013-11-22 13:15:00,45.7,42.9,30.00,NW,305,0.0,0.0,90,0.00,,,0.17,Wunderground v.1.15,2013-11-22 18:15:00,
2013-11-22 13:25:00,45.8,43.0,30.00,NW,305,0.0,0.0,90,0.00,,,0.17,Wunderground v.1.15,2013-11-22 18:25:00,
2013-11-22 13:35:00,45.9,43.1,29.99,NW,305,0.0,0.0,90,0.00,,,0.17,Wunderground v.1.15,2013-11-22 18:35:00,
2013-11-22 13:45:00,46.1,43.3,29.99,NW,305,0.0,0.0,90,0.00,,,0.17,Wunderground v.1.15,2013-11-22 18:45:00,
2013-11-22 13:55:00,46.2,43.4,29.99,NW,305,0.0,0.0,90,0.00,,,0.17,Wunderground v.1.15,2013-11-22 18:55:00,
2013-11-22 14:00:00,46.3,43.5,29.99,NW,305,0.0,0.0,90,0.00,,,0.17,Wunderground v.1.15,2013-11-22 19:00:00,
2013-11-22 14:05:00,46.3,43.5,29.99,NW,305,0.0,0.0,90,0.00,,,0.17,Wunderground v.1.15,2013-11-22 19:05:00,
2013-11-22 14:15:00,46.4,43.6,29.99,NW,305,0.0,0.0,90,0.00,,,0.17,Wunderground v.1.15,2013-11-22 19:15:00,
2013-11-22 14:25:00,46.5,43.7,29.99,NW,305,0.0,0.0,90,0.00,,,0.17,Wunderground v.1.15,2013-11-22 19:25:00,
2013-11-22 14:35:00,46.7,43.9,29.97,NW,305,0.0,0.0,90,0.00,,,0.17,Wunderground v.1.15,2013-11-22 19:35:00,
2013-11-22 14:45:00,46.8,44.0,29.98,NW,305,0.0,0.0,90,0.00,,,0.17,Wunderground v.1.15,2013-11-22 19:45:00,
2013-11-22 14:55:00,46.8,44.0,29.98,NW,305,0.0,0.0,90,0.00,,,0.17,Wunderground v.1.15,2013-11-22 19:55:00,
2013-11-22 15:05:00,46.8,44.0,29.97,NW,305,0.0,0.0,90,0.00,,,0.17,Wunderground v.1.15,2013-11-22 20:05:00,
2013-11-22 15:15:00,46.8,44.0,29.96,NW,305,0.0,0.0,90,0.00,,,0.17,Wunderground v.1.15,2013-11-22 20:15:00,
2013-11-22 15:25:00,46.8,44.0,29.97,NW,305,0.0,0.0,90,0.00,,,0.17,Wunderground v.1.15,2013-11-22 20:25:00,
2013-11-22 15:35:00,46.8,44.0,29.96,NW,305,0.0,0.0,90,0.00,,,0.17,Wunderground v.1.15,2013-11-22 20:35:00,
2013-11-22 15:45:00,46.8,44.0,29.96,NW,305,0.0,0.0,90,0.00,,,0.17,Wunderground v.1.15,2013-11-22 20:45:00,
2013-11-22 15:55:00,46.8,44.0,29.96,NW,305,0.0,0.0,90,0.00,,,0.17,Wunderground v.1.15,2013-11-22 20:55:00,
2013-11-22 16:05:00,46.5,43.7,29.95,NW,305,0.0,0.0,90,0.00,,,0.17,Wunderground v.1.15,2013-11-22 21:05:00,
2013-11-22 16:15:00,46.5,44.0,29.94,NW,305,0.0,0.0,91,0.00,,,0.17,Wunderground v.1.15,2013-11-22 21:15:00,
2013-11-22 16:25:00,46.4,43.9,29.93,NW,305,0.0,0.0,91,0.00,,,0.17,Wunderground v.1.15,2013-11-22 21:25:00,
2013-11-22 16:35:00,46.4,43.6,29.94,NW,305,0.0,0.0,90,0.00,,,0.17,Wunderground v.1.15,2013-11-22 21:35:00,
2013-11-22 16:45:00,46.3,43.5,29.95,NW,305,0.0,0.0,90,0.00,,,0.17,Wunderground v.1.15,2013-11-22 21:45:00,
2013-11-22 16:55:00,46.2,43.4,29.94,NW,305,0.0,0.0,90,0.00,,,0.17,Wunderground v.1.15,2013-11-22 21:55:00,